Home > Products > Valid Products > TAF

000
FTUS41 KGYX 281124
TAFPWM
TAF
KPWM 281124Z 2812/2912 28007KT P6SM SKC
     FM281700 20008KT P6SM SKC
     FM282300 25003KT P6SM SKC=



000
FTUS41 KGYX 281124
TAFPSM
TAF
KPSM 281124Z 2812/2912 28005KT P6SM SKC
     FM281900 16008KT P6SM SKC
     FM290000 26003KT P6SM SKC=



000
FTUS41 KGYX 281124
TAFCON
TAF
KCON 281124Z 2812/2912 00000KT P6SM SKC
     FM281600 31006KT P6SM SKC
     FM282300 VRB03KT P6SM SKC=



000
FTUS41 KGYX 281124
TAFCON
TAF
KCON 281124Z 2812/2912 00000KT P6SM SKC
     FM281600 31006KT P6SM SKC
     FM282300 VRB03KT P6SM SKC=



000
FTUS41 KGYX 281124
TAFPWM
TAF
KPWM 281124Z 2812/2912 28007KT P6SM SKC
     FM281700 20008KT P6SM SKC
     FM282300 25003KT P6SM SKC=



000
FTUS41 KGYX 281124
TAFPSM
TAF
KPSM 281124Z 2812/2912 28005KT P6SM SKC
     FM281900 16008KT P6SM SKC
     FM290000 26003KT P6SM SKC=



000
FTUS41 KGYX 281124
TAFLEB
TAF
KLEB 281124Z 2812/2912 00000KT 1/4SM FG VV001
     FM281330 34003KT P6SM SKC
     FM290700 00000KT 1/4SM FG VV001=



000
FTUS41 KGYX 281124
TAFAUG
TAF
KAUG 281124Z 2812/2912 31005KT P6SM SKC
     FM290000 VRB03KT P6SM SKC
     FM291000 28003KT 1SM BR SCT002=



000
FTUS41 KGYX 281124
TAFLEB
TAF
KLEB 281124Z 2812/2912 00000KT 1/4SM FG VV001
     FM281330 34003KT P6SM SKC
     FM290700 00000KT 1/4SM FG VV001=



000
FTUS41 KGYX 281124
TAFAUG
TAF
KAUG 281124Z 2812/2912 31005KT P6SM SKC
     FM290000 VRB03KT P6SM SKC
     FM291000 28003KT 1SM BR SCT002=



000
FTUS41 KGYX 280902 AAA
TAFPWM
TAF AMD
KPWM 280902Z 2809/2906 28007KT P6SM SKC
     FM281700 20008KT P6SM SKC
     FM282300 22003KT P6SM SKC=



000
FTUS41 KGYX 280902 AAA
TAFAUG
TAF AMD
KAUG 280902Z 2809/2906 31005KT P6SM SKC
     FM290000 VRB03KT P6SM SKC=



000
FTUS41 KGYX 280902 AAA
TAFCON
TAF AMD
KCON 280902Z 2809/2906 00000KT P6SM SKC
     FM281600 31006KT P6SM SKC
     FM282300 VRB03KT P6SM SKC=



000
FTUS41 KGYX 280902 AAA
TAFPSM
TAF AMD
KPSM 280902Z 2809/2906 29005KT P6SM SKC
     FM281900 16008KT P6SM SKC
     FM290000 VRB03KT P6SM SKC=



000
FTUS41 KGYX 280902 AAB
TAFLEB
TAF AMD
KLEB 280902Z 2809/2906 00000KT 1/4SM FG VV001
     FM281300 34003KT P6SM SKC=



000
FTUS41 KGYX 280902 AAA
TAFAUG
TAF AMD
KAUG 280902Z 2809/2906 31005KT P6SM SKC
     FM290000 VRB03KT P6SM SKC=



000
FTUS41 KGYX 280902 AAA
TAFPWM
TAF AMD
KPWM 280902Z 2809/2906 28007KT P6SM SKC
     FM281700 20008KT P6SM SKC
     FM282300 22003KT P6SM SKC=



000
FTUS41 KGYX 280902 AAA
TAFCON
TAF AMD
KCON 280902Z 2809/2906 00000KT P6SM SKC
     FM281600 31006KT P6SM SKC
     FM282300 VRB03KT P6SM SKC=



000
FTUS41 KGYX 280902 AAA
TAFPSM
TAF AMD
KPSM 280902Z 2809/2906 29005KT P6SM SKC
     FM281900 16008KT P6SM SKC
     FM290000 VRB03KT P6SM SKC=



000
FTUS41 KGYX 280902 AAB
TAFLEB
TAF AMD
KLEB 280902Z 2809/2906 00000KT 1/4SM FG VV001
     FM281300 34003KT P6SM SKC=



000
FTUS41 KGYX 280540 AAA
TAFLEB
TAF AMD
KLEB 280540Z 2806/2906 00000KT 1/4SM FG VV001
     FM281330 34003KT P6SM SKC=



000
FTUS41 KGYX 280524
TAFAUG
TAF
KAUG 280524Z 2806/2906 31005KT P6SM SKC
     FM290000 VRB03KT P6SM SKC=



000
FTUS41 KGYX 280524
TAFLEB
TAF
KLEB 280524Z 2806/2906 00000KT P6SM SKC
     FM280700 00000KT 1/4SM FG VV001
     FM281330 34003KT P6SM SKC=



000
FTUS41 KGYX 280524
TAFPSM
TAF
KPSM 280524Z 2806/2906 31004KT P6SM SKC
     FM281900 16008KT P6SM SKC
     FM290000 VRB03KT P6SM SKC=



000
FTUS41 KGYX 280524
TAFCON
TAF
KCON 280524Z 2806/2906 00000KT P6SM SKC
     FM281600 31006KT P6SM SKC
     FM282300 VRB03KT P6SM SKC=



000
FTUS41 KGYX 280524
TAFPWM
TAF
KPWM 280524Z 2806/2906 30003KT P6SM SKC
     FM281700 20008KT P6SM SKC
     FM282300 20003KT P6SM SKC=



000
FTUS41 KGYX 280524
TAFCON
TAF
KCON 280524Z 2806/2906 00000KT P6SM SKC
     FM281600 31006KT P6SM SKC
     FM282300 VRB03KT P6SM SKC=



000
FTUS41 KGYX 280524
TAFAUG
TAF
KAUG 280524Z 2806/2906 31005KT P6SM SKC
     FM290000 VRB03KT P6SM SKC=



000
FTUS41 KGYX 280524
TAFPSM
TAF
KPSM 280524Z 2806/2906 31004KT P6SM SKC
     FM281900 16008KT P6SM SKC
     FM290000 VRB03KT P6SM SKC=



000
FTUS41 KGYX 280524
TAFPWM
TAF
KPWM 280524Z 2806/2906 30003KT P6SM SKC
     FM281700 20008KT P6SM SKC
     FM282300 20003KT P6SM SKC=



000
FTUS41 KGYX 280524
TAFLEB
TAF
KLEB 280524Z 2806/2906 00000KT P6SM SKC
     FM280700 00000KT 1/4SM FG VV001
     FM281330 34003KT P6SM SKC=



000
FTUS41 KGYX 272320
TAFPWM
TAF
KPWM 272320Z 2800/2824 31004KT P6SM SKC
     FM281700 19008KT P6SM SKC=



000
FTUS41 KGYX 272320
TAFPSM
TAF
KPSM 272320Z 2800/2824 31004KT P6SM SKC
     FM281900 16008KT P6SM SKC=



000
FTUS41 KGYX 272320
TAFCON
TAF
KCON 272320Z 2800/2824 00000KT P6SM SKC
     FM281600 31006KT P6SM SKC=



000
FTUS41 KGYX 272320
TAFPWM
TAF
KPWM 272320Z 2800/2824 31004KT P6SM SKC
     FM281700 19008KT P6SM SKC=



000
FTUS41 KGYX 272320
TAFPSM
TAF
KPSM 272320Z 2800/2824 31004KT P6SM SKC
     FM281900 16008KT P6SM SKC=



000
FTUS41 KGYX 272320
TAFAUG
TAF
KAUG 272320Z 2800/2824 31005KT P6SM SKC=



000
FTUS41 KGYX 272320
TAFLEB
TAF
KLEB 272320Z 2800/2824 00000KT P6SM SKC
     FM280700 00000KT 1/4SM FG VV001
     FM281330 34003KT P6SM SKC=



000
FTUS41 KGYX 272320
TAFLEB
TAF
KLEB 272320Z 2800/2824 00000KT P6SM SKC
     FM280700 00000KT 1/4SM FG VV001
     FM281330 34003KT P6SM SKC=



000
FTUS41 KGYX 272320
TAFAUG
TAF
KAUG 272320Z 2800/2824 31005KT P6SM SKC=



000
FTUS41 KGYX 272320
TAFCON
TAF
KCON 272320Z 2800/2824 00000KT P6SM SKC
     FM281600 31006KT P6SM SKC=



000
FTUS41 KGYX 271732
TAFLEB
TAF
KLEB 271732Z 2718/2818 30008KT P6SM BKN060
     FM272300 00000KT P6SM SKC
     FM280700 00000KT 1/4SM FG VV001
     FM281330 33004KT P6SM SKC=



000
FTUS41 KGYX 271732
TAFPSM
TAF
KPSM 271732Z 2718/2818 28008KT P6SM SCT050
     FM280000 30004KT P6SM SKC
     FM281700 16008KT P6SM SKC=



000
FTUS41 KGYX 271732
TAFAUG
TAF
KAUG 271732Z 2718/2818 30007KT P6SM BKN050
     FM280000 31004KT P6SM SKC=



000
FTUS41 KGYX 271732
TAFPWM
TAF
KPWM 271732Z 2718/2818 28007KT P6SM SCT060
     FM280000 31004KT P6SM SKC
     FM281700 18008KT P6SM SKC=



000
FTUS41 KGYX 271732
TAFCON
TAF
KCON 271732Z 2718/2818 31008KT P6SM BKN050
     FM280000 00000KT P6SM SKC=



000
FTUS41 KGYX 271732
TAFLEB
TAF
KLEB 271732Z 2718/2818 30008KT P6SM BKN060
     FM272300 00000KT P6SM SKC
     FM280700 00000KT 1/4SM FG VV001
     FM281330 33004KT P6SM SKC=



000
FTUS41 KGYX 271732
TAFPWM
TAF
KPWM 271732Z 2718/2818 28007KT P6SM SCT060
     FM280000 31004KT P6SM SKC
     FM281700 18008KT P6SM SKC=



000
FTUS41 KGYX 271732
TAFPSM
TAF
KPSM 271732Z 2718/2818 28008KT P6SM SCT050
     FM280000 30004KT P6SM SKC
     FM281700 16008KT P6SM SKC=



000
FTUS41 KGYX 271732
TAFAUG
TAF
KAUG 271732Z 2718/2818 30007KT P6SM BKN050
     FM280000 31004KT P6SM SKC=



000
FTUS41 KGYX 271732
TAFCON
TAF
KCON 271732Z 2718/2818 31008KT P6SM BKN050
     FM280000 00000KT P6SM SKC=



000
FTUS41 KGYX 271120
TAFAUG
TAF
KAUG 271120Z 2712/2812 32004KT P6SM SCT070
     FM271500 31008KT P6SM SCT060=



000
FTUS41 KGYX 271120
TAFLEB
TAF
KLEB 271120Z 2712/2812 VRB03KT 5SM BR BKN060
     FM271230 31006KT P6SM SCT060=



000
FTUS41 KGYX 271120
TAFCON
TAF
KCON 271120Z 2712/2812 00000KT P6SM SCT080
     FM271600 31007KT P6SM SCT060=



000
FTUS41 KGYX 271120
TAFLEB
TAF
KLEB 271120Z 2712/2812 VRB03KT 5SM BR BKN060
     FM271230 31006KT P6SM SCT060=



000
FTUS41 KGYX 271120
TAFAUG
TAF
KAUG 271120Z 2712/2812 32004KT P6SM SCT070
     FM271500 31008KT P6SM SCT060=



000
FTUS41 KGYX 271120
TAFPSM
TAF
KPSM 271120Z 2712/2812 29004KT P6SM SCT060
     FM271600 28008KT P6SM SCT060=



000
FTUS41 KGYX 271120
TAFPWM
TAF
KPWM 271120Z 2712/2812 29003KT P6SM SCT060
     FM271900 24009KT P6SM SCT060=



000
FTUS41 KGYX 271120
TAFPSM
TAF
KPSM 271120Z 2712/2812 29004KT P6SM SCT060
     FM271600 28008KT P6SM SCT060=



000
FTUS41 KGYX 271120
TAFCON
TAF
KCON 271120Z 2712/2812 00000KT P6SM SCT080
     FM271600 31007KT P6SM SCT060=



000
FTUS41 KGYX 271120
TAFPWM
TAF
KPWM 271120Z 2712/2812 29003KT P6SM SCT060
     FM271900 24009KT P6SM SCT060=



000
FTUS41 KGYX 270909 AAB
TAFAUG
TAF AMD
KAUG 270909Z 2709/2806 32004KT P6SM SCT070
     FM271500 31008KT P6SM SCT060=



000
FTUS41 KGYX 270909 AAA
TAFPWM
TAF AMD
KPWM 270909Z 2709/2806 31003KT P6SM SCT060
     FM271900 24009KT P6SM SCT060=



000
FTUS41 KGYX 270909 AAA
TAFPSM
TAF AMD
KPSM 270909Z 2709/2806 29004KT P6SM SCT060
     FM271600 28008KT P6SM SCT060=



000
FTUS41 KGYX 270909 AAA
TAFCON
TAF AMD
KCON 270909Z 2709/2806 00000KT P6SM SCT080
     FM271600 31007KT P6SM SCT060=



000
FTUS41 KGYX 270909 AAA
TAFLEB
TAF AMD
KLEB 270909Z 2709/2806 VRB03KT 6SM BR BKN060
     FM271500 31006KT P6SM SCT060=



000
FTUS41 KGYX 270909 AAA
TAFPWM
TAF AMD
KPWM 270909Z 2709/2806 31003KT P6SM SCT060
     FM271900 24009KT P6SM SCT060=



000
FTUS41 KGYX 270806 AAA
TAFAUG
TAF AMD
KAUG 270806Z 2708/2806 32004KT P6SM SCT070
     FM271500 31008KT P6SM SCT060=



000
FTUS41 KGYX 270520
TAFPWM
TAF
KPWM 270520Z 2706/2806 31003KT P6SM SCT060
     FM271900 24009KT P6SM SCT060=



000
FTUS41 KGYX 270520
TAFCON
TAF
KCON 270520Z 2706/2806 00000KT P6SM SCT080
     FM271600 31007KT P6SM SCT060=



000
FTUS41 KGYX 270520
TAFPWM
TAF
KPWM 270520Z 2706/2806 31003KT P6SM SCT060
     FM271900 24009KT P6SM SCT060=



000
FTUS41 KGYX 270520
TAFPSM
TAF
KPSM 270520Z 2706/2806 29004KT P6SM SCT060
     FM271600 28008KT P6SM SCT060=



000
FTUS41 KGYX 270520
TAFLEB
TAF
KLEB 270520Z 2706/2806 VRB03KT 6SM BR BKN060
     FM271500 31006KT P6SM SCT060=



000
FTUS41 KGYX 270520
TAFAUG
TAF
KAUG 270520Z 2706/2806 30004KT P6SM SCT070
      TEMPO 2708/2712 3SM BR SCT002
     FM271300 31008KT P6SM SCT060=



000
FTUS41 KGYX 270520
TAFAUG
TAF
KAUG 270520Z 2706/2806 30004KT P6SM SCT070
      TEMPO 2708/2712 3SM BR SCT002
     FM271300 31008KT P6SM SCT060=



000
FTUS41 KGYX 270520
TAFPSM
TAF
KPSM 270520Z 2706/2806 29004KT P6SM SCT060
     FM271600 28008KT P6SM SCT060=



000
FTUS41 KGYX 270520
TAFCON
TAF
KCON 270520Z 2706/2806 00000KT P6SM SCT080
     FM271600 31007KT P6SM SCT060=



000
FTUS41 KGYX 270520
TAFLEB
TAF
KLEB 270520Z 2706/2806 VRB03KT 6SM BR BKN060
     FM271500 31006KT P6SM SCT060=



000
FTUS41 KGYX 270210 AAA
TAFAUG
TAF AMD
KAUG 270210Z 2702/2724 VRB04KT P6SM SCT070
      TEMPO 2702/2705 BKN070
     FM270500 VRB03KT 3SM BR SCT002
     FM270800 32005KT P6SM BKN080
     FM271300 31008KT P6SM SCT060 BKN080=



000
FTUS41 KGYX 270210 AAA
TAFAUG
TAF AMD
KAUG 270210Z 2702/2724 VRB04KT P6SM SCT070
      TEMPO 2702/2705 BKN070
     FM270500 VRB03KT 3SM BR SCT002
     FM270800 32005KT P6SM BKN080
     FM271300 31008KT P6SM SCT060 BKN080=



000
FTUS41 KGYX 270150 AAA
TAFPWM
TAF AMD
KPWM 270150Z 2702/2724 VRB04KT P6SM FEW015 BKN090
     FM270400 30004KT P6SM SCT080
     FM271300 30007KT P6SM SCT050 SCT080
     FM272000 24009KT P6SM SCT060 SCT090=



000
FTUS41 KGYX 262328
TAFLEB
TAF
KLEB 262328Z 2700/2724 31004KT P6SM OVC080
     FM271400 31006KT P6SM SCT060 SCT090=



000
FTUS41 KGYX 262328
TAFPWM
TAF
KPWM 262328Z 2700/2724 19006KT P6SM SCT020 BKN100
      TEMPO 2700/2704 BKN015 BKN100
     FM270400 30004KT P6SM SCT080
     FM271300 30007KT P6SM SCT050 SCT080
     FM272000 24009KT P6SM SCT060 SCT090=



000
FTUS41 KGYX 262328
TAFLEB
TAF
KLEB 262328Z 2700/2724 31004KT P6SM OVC080
     FM271400 31006KT P6SM SCT060 SCT090=



000
FTUS41 KGYX 262328
TAFAUG
TAF
KAUG 262328Z 2700/2724 VRB04KT P6SM BKN040 BKN080
      TEMPO 2700/2703 5SM BR BKN006 OVC012
     FM270300 VRB03KT 2SM BR OVC004
     FM270800 32005KT P6SM SCT010 BKN080
     FM271300 31008KT P6SM SCT060 BKN080=



000
FTUS41 KGYX 262328
TAFPWM
TAF
KPWM 262328Z 2700/2724 19006KT P6SM SCT020 BKN100
      TEMPO 2700/2704 BKN015 BKN100
     FM270400 30004KT P6SM SCT080
     FM271300 30007KT P6SM SCT050 SCT080
     FM272000 24009KT P6SM SCT060 SCT090=



000
FTUS41 KGYX 262328
TAFCON
TAF
KCON 262328Z 2700/2724 VRB04KT P6SM SCT080
      TEMPO 2702/2706 BKN080
     FM271300 31007KT P6SM SCT060 SCT080=



000
FTUS41 KGYX 262328
TAFPSM
TAF
KPSM 262328Z 2700/2724 29004KT P6SM SCT080
      TEMPO 2703/2707 BKN080
     FM271300 28007KT P6SM SCT090
     FM272000 25008KT P6SM SCT060 SCT080=



000
FTUS41 KGYX 262328
TAFCON
TAF
KCON 262328Z 2700/2724 VRB04KT P6SM SCT080
      TEMPO 2702/2706 BKN080
     FM271300 31007KT P6SM SCT060 SCT080=



000
FTUS41 KGYX 262328
TAFPSM
TAF
KPSM 262328Z 2700/2724 29004KT P6SM SCT080
      TEMPO 2703/2707 BKN080
     FM271300 28007KT P6SM SCT090
     FM272000 25008KT P6SM SCT060 SCT080=



000
FTUS41 KGYX 262328
TAFAUG
TAF
KAUG 262328Z 2700/2724 VRB04KT P6SM BKN040 BKN080
      TEMPO 2700/2703 5SM BR BKN006 OVC012
     FM270300 VRB03KT 2SM BR OVC004
     FM270800 32005KT P6SM SCT010 BKN080
     FM271300 31008KT P6SM SCT060 BKN080=



000
FTUS41 KGYX 262256 AAA
TAFAUG
TAF AMD
KAUG 262256Z 2623/2718 VRB06KT P6SM SCT025 BKN040
      TEMPO 2623/2624 -TSRA BKN025CB OVC040
     FM270300 32005KT P6SM SCT050=



000
FTUS41 KGYX 262256 AAA
TAFAUG
TAF AMD
KAUG 262256Z 2623/2718 VRB06KT P6SM SCT025 BKN040
      TEMPO 2623/2624 -TSRA BKN025CB OVC040
     FM270300 32005KT P6SM SCT050=



000
FTUS41 KGYX 261720
TAFAUG
TAF
KAUG 261720Z 2618/2718 15005KT P6SM BKN007 OVC012
     FM261900 16006KT P6SM -SHRA SCT015 BKN025 BKN050
     FM262100 18006KT P6SM SCT025 BKN050
     FM270300 32005KT P6SM SCT050=



000
FTUS41 KGYX 261720
TAFPSM
TAF
KPSM 261720Z 2618/2718 30007KT P6SM SCT050=



000
FTUS41 KGYX 261720
TAFCON
TAF
KCON 261720Z 2618/2718 32005KT P6SM SCT050=



000
FTUS41 KGYX 261720
TAFLEB
TAF
KLEB 261720Z 2618/2718 31004KT P6SM SCT050=



000
FTUS41 KGYX 261720
TAFPWM
TAF
KPWM 261720Z 2618/2718 13007KT P6SM SCT025 BKN050
     FM270000 31004KT P6SM SCT100=



000
FTUS41 KGYX 261720
TAFCON
TAF
KCON 261720Z 2618/2718 32005KT P6SM SCT050=



000
FTUS41 KGYX 261720
TAFLEB
TAF
KLEB 261720Z 2618/2718 31004KT P6SM SCT050=



000
FTUS41 KGYX 261720
TAFPSM
TAF
KPSM 261720Z 2618/2718 30007KT P6SM SCT050=



000
FTUS41 KGYX 261720
TAFPWM
TAF
KPWM 261720Z 2618/2718 13007KT P6SM SCT025 BKN050
     FM270000 31004KT P6SM SCT100=



000
FTUS41 KGYX 261720
TAFAUG
TAF
KAUG 261720Z 2618/2718 15005KT P6SM BKN007 OVC012
     FM261900 16006KT P6SM -SHRA SCT015 BKN025 BKN050
     FM262100 18006KT P6SM SCT025 BKN050
     FM270300 32005KT P6SM SCT050=



000
FTUS41 KGYX 261325 AAA
TAFPSM
TAF AMD
KPSM 261325Z 2613/2712 VRB04KT P6SM SCT020 SCT050
      TEMPO 2613/2615 BKN007
     FM261500 22007KT P6SM SCT040=



000
FTUS41 KGYX 261325 AAA
TAFPWM
TAF AMD
KPWM 261325Z 2613/2712 15004KT P6SM BKN015
     FM261600 16007KT P6SM SCT020 BKN035 BKN050=



000
FTUS41 KGYX 261325 AAA
TAFCON
TAF AMD
KCON 261325Z 2613/2712 32005KT P6SM BKN010 OVC025
     FM261500 32005KT P6SM SCT020 SCT050=



000
FTUS41 KGYX 261325 AAA
TAFCON
TAF AMD
KCON 261325Z 2613/2712 32005KT P6SM BKN010 OVC025
     FM261500 32005KT P6SM SCT020 SCT050=



000
FTUS41 KGYX 261325 AAA
TAFPSM
TAF AMD
KPSM 261325Z 2613/2712 VRB04KT P6SM SCT020 SCT050
      TEMPO 2613/2615 BKN007
     FM261500 22007KT P6SM SCT040=



000
FTUS41 KGYX 261325 AAA
TAFPWM
TAF AMD
KPWM 261325Z 2613/2712 15004KT P6SM BKN015
     FM261600 16007KT P6SM SCT020 BKN035 BKN050=



000
FTUS41 KGYX 261204 AAA
TAFAUG
TAF AMD
KAUG 261204Z 2612/2712 VRB04KT 1/2SM FG VV002
     FM261400 VRB04KT P6SM BKN007 OVC012
     FM262000 13006KT P6SM SCT015 BKN035 BKN050=



000
FTUS41 KGYX 261204 AAA
TAFAUG
TAF AMD
KAUG 261204Z 2612/2712 VRB04KT 1/2SM FG VV002
     FM261400 VRB04KT P6SM BKN007 OVC012
     FM262000 13006KT P6SM SCT015 BKN035 BKN050=



000
FTUS41 KGYX 261127 CCB
TAFCON
TAF COR
KCON 261127Z 2612/2712 00000KT 2SM BR OVC003
     FM261230 32005KT 5SM BR BKN006
     FM261330 32005KT P6SM SCT020 SCT050=



000
FTUS41 KGYX 261127 CCB
TAFCON
TAF COR
KCON 261127Z 2612/2712 00000KT 2SM BR OVC003
     FM261230 32005KT 5SM BR BKN006
     FM261330 32005KT P6SM SCT020 SCT050=



000
FTUS41 KGYX 261125 CCA
TAFCON
TAF COR
KCON 261125Z 2612/2712 00000KT 2SM BR VV002
     FM261230 32005KT 5SM BR BKN006
     FM261330 32005KT P6SM SCT020 SCT050=



000
FTUS41 KGYX 261125 CCA
TAFCON
TAF COR
KCON 261125Z 2612/2712 00000KT 2SM BR VV002
     FM261230 32005KT 5SM BR BKN006
     FM261330 32005KT P6SM SCT020 SCT050=



000
FTUS41 KGYX 261121
TAFAUG
TAF
KAUG 261121Z 2612/2712 VRB04KT 1/2SM FG VV002
     FM261300 VRB04KT P6SM BKN007 OVC012
     FM262000 13006KT P6SM SCT015 BKN035 BKN050=



000
FTUS41 KGYX 261121
TAFPSM
TAF
KPSM 261121Z 2612/2712 VRB04KT P6SM SCT020 SCT050
     FM261500 22007KT P6SM SCT040=



000
FTUS41 KGYX 261121
TAFPWM
TAF
KPWM 261121Z 2612/2712 15004KT 2SM -DZ BR BKN005
     FM261400 VRB04KT P6SM BKN007
     FM261600 16007KT P6SM SCT020 BKN035 BKN050=



000
FTUS41 KGYX 261121
TAFPWM
TAF
KPWM 261121Z 2612/2712 15004KT 2SM -DZ BR BKN005
     FM261400 VRB04KT P6SM BKN007
     FM261600 16007KT P6SM SCT020 BKN035 BKN050=



000
FTUS41 KGYX 261121
TAFAUG
TAF
KAUG 261121Z 2612/2712 VRB04KT 1/2SM FG VV002
     FM261300 VRB04KT P6SM BKN007 OVC012
     FM262000 13006KT P6SM SCT015 BKN035 BKN050=



000
FTUS41 KGYX 261121
TAFLEB
TAF
KLEB 261121Z 2612/2712 00000KT P6SM SCT002 BKN080
     FM261500 31006KT P6SM SCT020 SCT050=



000
FTUS41 KGYX 261121
TAFCON
TAF
KCON 261121Z 2612/2712 00000KT 1/4SM FG VV002
     FM261230 32005KT 5SM BR BKN004
     FM261330 32005KT P6SM SCT020 SCT050=



000
FTUS41 KGYX 261121
TAFLEB
TAF
KLEB 261121Z 2612/2712 00000KT P6SM SCT002 BKN080
     FM261500 31006KT P6SM SCT020 SCT050=



000
FTUS41 KGYX 261121
TAFCON
TAF
KCON 261121Z 2612/2712 00000KT 1/4SM FG VV002
     FM261230 32005KT 5SM BR BKN004
     FM261330 32005KT P6SM SCT020 SCT050=



000
FTUS41 KGYX 261121
TAFPSM
TAF
KPSM 261121Z 2612/2712 VRB04KT P6SM SCT020 SCT050
     FM261500 22007KT P6SM SCT040=



000
FTUS41 KGYX 261104 AAC
TAFPWM
TAF AMD
KPWM 261104Z 2611/2706 15004KT 2SM -DZ BR BKN005
     FM261400 VRB04KT P6SM BKN007
     FM261600 16007KT P6SM SCT020 BKN035 BKN050=



000
FTUS41 KGYX 261104 AAC
TAFPWM
TAF AMD
KPWM 261104Z 2611/2706 15004KT 2SM -DZ BR BKN005
     FM261400 VRB04KT P6SM BKN007
     FM261600 16007KT P6SM SCT020 BKN035 BKN050=



000
FTUS41 KGYX 261039 AAB
TAFPWM
TAF AMD
KPWM 261039Z 2611/2706 15004KT 1/4SM -DZ FG VV002
      TEMPO 2611/2613 1/2SM FG VV002
     FM261400 VRB04KT P6SM BKN007
     FM261600 16007KT P6SM SCT020 BKN035 BKN050=



000
FTUS41 KGYX 261039 AAB
TAFPWM
TAF AMD
KPWM 261039Z 2611/2706 15004KT 1/4SM -DZ FG VV002
      TEMPO 2611/2613 1/2SM FG VV002
     FM261400 VRB04KT P6SM BKN007
     FM261600 16007KT P6SM SCT020 BKN035 BKN050=



000
FTUS41 KGYX 261038 CCA
TAFAUG
TAF COR
KAUG 261038Z 2611/2706 VRB04KT 1/4SM FG VV002
     FM261300 VRB04KT P6SM BKN007 OVC012
     FM262000 13006KT P6SM SCT015 BKN035 BKN050=



000
FTUS41 KGYX 261038 AAB
TAFAUG
TAF AMD
KAUG 261038Z 2611/2706 VRB04KT 1/2SM FG VV002
     FM261300 VRB04KT P6SM BKN007 OVC012
     FM262000 13006KT P6SM SCT015 BKN035 BKN050=



000
FTUS41 KGYX 261038 AAB
TAFAUG
TAF AMD
KAUG 261038Z 2611/2706 VRB04KT 1/2SM FG VV002
     FM261300 VRB04KT P6SM BKN007 OVC012
     FM262000 13006KT P6SM SCT015 BKN035 BKN050=



000
FTUS41 KGYX 261038 CCA
TAFAUG
TAF COR
KAUG 261038Z 2611/2706 VRB04KT 1/4SM FG VV002
     FM261300 VRB04KT P6SM BKN007 OVC012
     FM262000 13006KT P6SM SCT015 BKN035 BKN050=



000
FTUS41 KGYX 260916 AAA
TAFPWM
TAF AMD
KPWM 260916Z 2609/2706 15004KT 1/2SM -DZ FG VV002
     FM261400 VRB04KT P6SM BKN007
     FM261600 16007KT P6SM SCT020 BKN035 BKN050=



000
FTUS41 KGYX 260916 AAC
TAFLEB
TAF AMD
KLEB 260916Z 2609/2706 00000KT 3SM BR SCT004
     FM261300 30004KT P6SM SCT020 SCT050=



000
FTUS41 KGYX 260916 AAB
TAFPSM
TAF AMD
KPSM 260916Z 2609/2706 VRB03KT 3SM BR BKN012
     FM261200 VRB04KT P6SM SCT020 SCT050
     FM261500 22007KT P6SM SCT040=



000
FTUS41 KGYX 260916 AAA
TAFAUG
TAF AMD
KAUG 260916Z 2609/2706 VRB04KT 1/4SM FG VV002
     FM261300 VRB04KT P6SM BKN007 OVC012
     FM262000 13006KT P6SM SCT015 BKN035 BKN050=



000
FTUS41 KGYX 260916 AAA
TAFCON
TAF AMD
KCON 260916Z 2609/2706 00000KT 1/4SM FG VV002
     FM261200 32005KT P6SM SCT020 SCT050=



000
FTUS41 KGYX 260735 AAB
TAFLEB
TAF AMD
KLEB 260735Z 2608/2706 00000KT 3SM BR OVC004
     FM261300 30004KT P6SM SCT020 SCT050=



000
FTUS41 KGYX 260733 AAA
TAFPSM
TAF AMD
KPSM 260733Z 2608/2706 VRB03KT 3SM BR BKN012
     FM261200 VRB04KT P6SM SCT020 SCT050
     FM261500 22007KT P6SM SCT040=



000
FTUS41 KGYX 260631 CCA
TAFLEB
TAF COR
KLEB 260631Z 2607/2706 00000KT 2SM BR OVC004
     FM261300 30004KT P6SM SCT020 SCT050=



000
FTUS41 KGYX 260631 CCA
TAFLEB
TAF COR
KLEB 260631Z 2607/2706 00000KT 2SM BR OVC004
     FM261300 30004KT P6SM SCT020 SCT050=



000
FTUS41 KGYX 260631 AAA
TAFLEB
TAF AMD
KLEB 260631Z 2607/2706 00000KT 1SM BR OVC004
     FM261300 30004KT P6SM SCT020 SCT050=



000
FTUS41 KGYX 260631 CCB
TAFLEB
TAF COR
KLEB 260631Z 2607/2706 00000KT 2SM BR OVC004
     FM261300 30004KT P6SM SCT020 SCT050=



000
FTUS41 KGYX 260631 AAA
TAFLEB
TAF AMD
KLEB 260631Z 2607/2706 00000KT 1SM BR OVC004
     FM261300 30004KT P6SM SCT020 SCT050=



000
FTUS41 KGYX 260631 CCB
TAFLEB
TAF COR
KLEB 260631Z 2607/2706 00000KT 2SM BR OVC004
     FM261300 30004KT P6SM SCT020 SCT050=



000
FTUS41 KGYX 260533
TAFPWM
TAF
KPWM 260533Z 2606/2706 15004KT 1/2SM -DZ FG VV002
     FM261400 VRB04KT P6SM BKN007
     FM261600 16007KT P6SM SCT020 BKN035 BKN050=



000
FTUS41 KGYX 260533
TAFCON
TAF
KCON 260533Z 2606/2706 00000KT 1/2SM FG VV002
      TEMPO 2606/2610 1/4SM FG
     FM261200 32005KT P6SM SCT020 SCT050=



000
FTUS41 KGYX 260533
TAFPSM
TAF
KPSM 260533Z 2606/2706 VRB03KT 2SM BR BKN002
     FM261200 VRB04KT P6SM SCT002 SCT020 SCT050
     FM261500 22007KT P6SM SCT040=



000
FTUS41 KGYX 260533
TAFAUG
TAF
KAUG 260533Z 2606/2706 15008KT 1SM -DZ BR OVC002
     FM260900 VRB04KT 1/2SM FG VV002
     FM261300 VRB04KT P6SM BKN007 OVC012
     FM262000 13006KT P6SM SCT015 BKN035 BKN050=



000
FTUS41 KGYX 260533
TAFLEB
TAF
KLEB 260533Z 2606/2706 00000KT 1SM BR OVC001
     FM261300 30004KT P6SM SCT020 SCT050=



000
FTUS41 KGYX 260352 AAA
TAFAUG
TAF AMD
KAUG 260352Z 2604/2624 15008KT 1/2SM -DZ FG VV002
     FM260900 08004KT 1/4SM FG VV001
     FM261300 VRB04KT 5SM BR BKN007 OVC012
     FM262000 13006KT P6SM SCT015 BKN035 BKN050=



000
FTUS41 KGYX 260336 AAA
TAFPWM
TAF AMD
KPWM 260336Z 2604/2624 14004KT 1/4SM -DZ FG VV002
     FM261400 VRB04KT 4SM BR OVC008
     FM261600 15007KT P6SM SCT020 BKN035 BKN050=



000
FTUS41 KGYX 260336 AAA
TAFPWM
TAF AMD
KPWM 260336Z 2604/2624 14004KT 1/4SM -DZ FG VV002
     FM261400 VRB04KT 4SM BR OVC008
     FM261600 15007KT P6SM SCT020 BKN035 BKN050=



000
FTUS41 KGYX 260233 AAB
TAFPSM
TAF AMD
KPSM 260233Z 2603/2624 14004KT P6SM FEW005 BKN100
      TEMPO 2603/2606 SCT015 BKN025
     FM260600 VRB03KT 4SM BR SCT015 BKN025
     FM261300 17004KT 5SM BR SCT020 SCT050
     FM261500 20008KT P6SM SCT035 SCT050
     FM261800 22007KT P6SM SCT040 BKN060=



000
FTUS41 KGYX 260233 AAB
TAFPSM
TAF AMD
KPSM 260233Z 2603/2624 14004KT P6SM FEW005 BKN100
      TEMPO 2603/2606 SCT015 BKN025
     FM260600 VRB03KT 4SM BR SCT015 BKN025
     FM261300 17004KT 5SM BR SCT020 SCT050
     FM261500 20008KT P6SM SCT035 SCT050
     FM261800 22007KT P6SM SCT040 BKN060=



000
FTUS41 KGYX 260229 AAA
TAFCON
TAF AMD
KCON 260229Z 2602/2624 00000KT P6SM SCT035 BKN100
      TEMPO 2602/2606 3SM -SHRA BR SCT015 BKN025
     FM260600 VRB03KT 5SM BR SCT015 BKN025
     FM261300 32005KT P6SM SCT020 SCT050
     FM261600 30007KT P6SM SCT040 BKN060=



000
FTUS41 KGYX 260229 AAA
TAFCON
TAF AMD
KCON 260229Z 2602/2624 00000KT P6SM SCT035 BKN100
      TEMPO 2602/2606 3SM -SHRA BR SCT015 BKN025
     FM260600 VRB03KT 5SM BR SCT015 BKN025
     FM261300 32005KT P6SM SCT020 SCT050
     FM261600 30007KT P6SM SCT040 BKN060=



000
FTUS41 KGYX 260135 AAA
TAFPSM
TAF AMD
KPSM 260135Z 2602/2624 12005KT 2SM -DZ BR OVC002
      TEMPO 2602/2604 1/2SM -DZ FG OVC002
     FM260400 14005KT 1/2SM -DZ FG OVC002
     FM261300 17006KT 5SM BR BKN008 OVC012
     FM261500 20008KT P6SM SCT035 SCT050
     FM261800 22007KT P6SM SCT040 BKN060=



000
FTUS41 KGYX 260135 AAA
TAFPSM
TAF AMD
KPSM 260135Z 2602/2624 12005KT 2SM -DZ BR OVC002
      TEMPO 2602/2604 1/2SM -DZ FG OVC002
     FM260400 14005KT 1/2SM -DZ FG OVC002
     FM261300 17006KT 5SM BR BKN008 OVC012
     FM261500 20008KT P6SM SCT035 SCT050
     FM261800 22007KT P6SM SCT040 BKN060=



000
FTUS41 KGYX 252320
TAFPWM
TAF
KPWM 252320Z 2600/2624 11005KT 1SM -DZ BR OVC003
     FM260200 11004KT 1/2SM -DZ FG VV002
     FM261400 VRB04KT 4SM BR OVC008
     FM261600 15007KT P6SM SCT020 BKN035 BKN050=



000
FTUS41 KGYX 252320
TAFPSM
TAF
KPSM 252320Z 2600/2624 11009KT 1/4SM -DZ FG OVC002
      TEMPO 2600/2602 1SM -SHRA BR BKN005 OVC008
     FM261300 17006KT 5SM BR BKN008 OVC012
     FM261500 20008KT P6SM SCT035 SCT050
     FM261800 22007KT P6SM SCT040 BKN060=



000
FTUS41 KGYX 252320
TAFLEB
TAF
KLEB 252320Z 2600/2624 00000KT P6SM SCT030 SCT045
      TEMPO 2600/2604 2SM BR BKN003
     FM260400 00000KT 1/4SM FG VV001
     FM261400 30005KT P6SM SCT020 SCT050
     FM261600 28005KT P6SM SCT035 BKN050=



000
FTUS41 KGYX 252320
TAFAUG
TAF
KAUG 252320Z 2600/2624 16007KT P6SM SCT008 OVC012
      TEMPO 2600/2602 2SM -DZ BR BKN005 OVC008
     FM260200 14004KT 1SM BR OVC005
     FM260300 08004KT 1/4SM FG VV001
     FM261500 VRB04KT 5SM BR BKN007 OVC012
     FM262000 13006KT P6SM SCT015 BKN035 BKN050=



000
FTUS41 KGYX 252320
TAFCON
TAF
KCON 252320Z 2600/2624 VRB07KT P6SM -SHRA SCT035 BKN045 OVC100
      TEMPO 2600/2602 1SM -TSRA BR BKN015 BKN025CB OVC030
     FM260200 VRB03KT 5SM BR BKN008 OVC015
     FM260600 00000KT 1/2SM FG VV002
     FM261300 32005KT P6SM SCT020 SCT050
     FM261600 30007KT P6SM SCT040 BKN060=



000
FTUS41 KGYX 252320
TAFPWM
TAF
KPWM 252320Z 2600/2624 11005KT 1SM -DZ BR OVC003
     FM260200 11004KT 1/2SM -DZ FG VV002
     FM261400 VRB04KT 4SM BR OVC008
     FM261600 15007KT P6SM SCT020 BKN035 BKN050=



000
FTUS41 KGYX 252320
TAFPSM
TAF
KPSM 252320Z 2600/2624 11009KT 1/4SM -DZ FG OVC002
      TEMPO 2600/2602 1SM -SHRA BR BKN005 OVC008
     FM261300 17006KT 5SM BR BKN008 OVC012
     FM261500 20008KT P6SM SCT035 SCT050
     FM261800 22007KT P6SM SCT040 BKN060=



000
FTUS41 KGYX 252320
TAFLEB
TAF
KLEB 252320Z 2600/2624 00000KT P6SM SCT030 SCT045
      TEMPO 2600/2604 2SM BR BKN003
     FM260400 00000KT 1/4SM FG VV001
     FM261400 30005KT P6SM SCT020 SCT050
     FM261600 28005KT P6SM SCT035 BKN050=



000
FTUS41 KGYX 252320
TAFAUG
TAF
KAUG 252320Z 2600/2624 16007KT P6SM SCT008 OVC012
      TEMPO 2600/2602 2SM -DZ BR BKN005 OVC008
     FM260200 14004KT 1SM BR OVC005
     FM260300 08004KT 1/4SM FG VV001
     FM261500 VRB04KT 5SM BR BKN007 OVC012
     FM262000 13006KT P6SM SCT015 BKN035 BKN050=



000
FTUS41 KGYX 252320
TAFCON
TAF
KCON 252320Z 2600/2624 VRB07KT P6SM -SHRA SCT035 BKN045 OVC100
      TEMPO 2600/2602 1SM -TSRA BR BKN015 BKN025CB OVC030
     FM260200 VRB03KT 5SM BR BKN008 OVC015
     FM260600 00000KT 1/2SM FG VV002
     FM261300 32005KT P6SM SCT020 SCT050
     FM261600 30007KT P6SM SCT040 BKN060=



000
FTUS41 KGYX 252159 AAB
TAFPWM
TAF AMD
KPWM 252159Z 2522/2618 12008KT 2SM -DZ BR OVC004
      TEMPO 2522/2524 1SM -SHRA BR BKN007 OVC015
     FM260000 13005KT 1SM BR BKN004
     FM260200 13004KT 1/2SM FG VV002
     FM261300 VRB05KT P6SM SCT025=



000
FTUS41 KGYX 251945 AAA
TAFLEB
TAF AMD
KLEB 251945Z 2520/2618 VRB03KT P6SM VCSH SCT020 BKN050 BKN090
      TEMPO 2520/2523 1SM TSRA BKN015CB OVC030
     FM252300 00000KT P6SM SCT025
     FM260400 00000KT 1/4SM FG VV001
     FM261400 VRB03KT P6SM SCT050=



000
FTUS41 KGYX 251945 AAA
TAFLEB
TAF AMD
KLEB 251945Z 2520/2618 VRB03KT P6SM VCSH SCT020 BKN050 BKN090
      TEMPO 2520/2523 1SM TSRA BKN015CB OVC030
     FM252300 00000KT P6SM SCT025
     FM260400 00000KT 1/4SM FG VV001
     FM261400 VRB03KT P6SM SCT050=



000
FTUS41 KGYX 251943 AAA
TAFAUG
TAF AMD
KAUG 251943Z 2520/2618 16007KT P6SM SCT015 BKN025 OVC150
      TEMPO 2520/2524 2SM SHRA BR BKN015 OVC030
     FM260100 14004KT 1SM BR OVC002
     FM260300 08004KT 1/4SM FG VV001
     FM261500 VRB04KT 5SM BR BKN007=



000
FTUS41 KGYX 251943 AAA
TAFAUG
TAF AMD
KAUG 251943Z 2520/2618 16007KT P6SM SCT015 BKN025 OVC150
      TEMPO 2520/2524 2SM SHRA BR BKN015 OVC030
     FM260100 14004KT 1SM BR OVC002
     FM260300 08004KT 1/4SM FG VV001
     FM261500 VRB04KT 5SM BR BKN007=



000
FTUS41 KGYX 251941 AAA
TAFCON
TAF AMD
KCON 251941Z 2520/2618 VRB07KT P6SM -SHRA SCT035 BKN050
      TEMPO 2520/2523 1SM -TSRA BR BKN015CB OVC030
     FM252300 VRB04KT P6SM SCT025 BKN050
     FM260200 VRB03KT 5SM BR SCT100
     FM260600 00000KT 1/2SM FG VV002
     FM261200 31005KT P6SM SCT050=



000
FTUS41 KGYX 251941 AAA
TAFCON
TAF AMD
KCON 251941Z 2520/2618 VRB07KT P6SM -SHRA SCT035 BKN050
      TEMPO 2520/2523 1SM -TSRA BR BKN015CB OVC030
     FM252300 VRB04KT P6SM SCT025 BKN050
     FM260200 VRB03KT 5SM BR SCT100
     FM260600 00000KT 1/2SM FG VV002
     FM261200 31005KT P6SM SCT050=



000
FTUS41 KGYX 251929 AAA
TAFPWM
TAF AMD
KPWM 251929Z 2519/2618 17008KT P6SM SCT008 BKN015 OVC035
      TEMPO 2519/2522 4SM -SHRA BR BKN007 OVC015
     FM252200 VRB07KT 5SM -SHRA BR BKN020
     FM260000 16005KT 1SM BR BKN004
     FM260300 13004KT 1/2SM FG VV002
     FM261300 VRB05KT P6SM SCT025=



000
FTUS41 KGYX 251741
TAFCON
TAF
KCON 251741Z 2518/2618 VRB07KT 3SM -SHRA BKN025
      TEMPO 2518/2521 1SM -TSRA BR BKN015CB
     FM252100 VRB04KT P6SM SCT025 BKN050
     FM260800 00000KT 1/2SM FG VV002
     FM261200 31005KT P6SM SCT050=



000
FTUS41 KGYX 251738
TAFLEB
TAF
KLEB 251738Z 2518/2618 VRB03KT P6SM SCT015 BKN025
     FM252200 00000KT P6SM SCT025
     FM260700 00000KT 1/4SM FG VV001
     FM261400 VRB03KT P6SM SCT050=



000
FTUS41 KGYX 251738
TAFAUG
TAF
KAUG 251738Z 2518/2618 15007KT P6SM BKN006 OVC010
      TEMPO 2522/2601 5SM -SHRA BR BKN015
     FM260300 14004KT 1/2SM FG OVC002
     FM260600 08004KT 1/4SM FG VV001
     FM261500 VRB04KT 5SM BR BKN007=



000
FTUS41 KGYX 251738
TAFPWM
TAF
KPWM 251738Z 2518/2618 17008KT P6SM BKN015 OVC035
      TEMPO 2518/2522 1SM BR BKN005
     FM252200 VRB07KT 5SM -SHRA BR BKN020
     FM260000 16005KT 1SM BR BKN004
     FM260300 13004KT 1/2SM FG VV002
     FM261300 VRB05KT P6SM SCT025=



000
FTUS41 KGYX 251738
TAFPSM
TAF
KPSM 251738Z 2518/2618 11009KT 2SM BR BKN004 OVC010
      TEMPO 2520/2522 5SM -SHRA BR BKN015
     FM260400 12004KT 1/2SM FG BKN002 OVC008
     FM261200 31006KT P6SM SCT100=



000
FTUS41 KGYX 251738
TAFPSM
TAF
KPSM 251738Z 2518/2618 11009KT 2SM BR BKN004 OVC010
      TEMPO 2520/2522 5SM -SHRA BR BKN015
     FM260400 12004KT 1/2SM FG BKN002 OVC008
     FM261200 31006KT P6SM SCT100=



000
FTUS41 KGYX 251738
TAFLEB
TAF
KLEB 251738Z 2518/2618 VRB03KT P6SM SCT015 BKN025
     FM252200 00000KT P6SM SCT025
     FM260700 00000KT 1/4SM FG VV001
     FM261400 VRB03KT P6SM SCT050=



000
FTUS41 KGYX 251738
TAFAUG
TAF
KAUG 251738Z 2518/2618 15007KT P6SM BKN006 OVC010
      TEMPO 2522/2601 5SM -SHRA BR BKN015
     FM260300 14004KT 1/2SM FG OVC002
     FM260600 08004KT 1/4SM FG VV001
     FM261500 VRB04KT 5SM BR BKN007=



000
FTUS41 KGYX 251738
TAFPWM
TAF
KPWM 251738Z 2518/2618 17008KT P6SM BKN015 OVC035
      TEMPO 2518/2522 1SM BR BKN005
     FM252200 VRB07KT 5SM -SHRA BR BKN020
     FM260000 16005KT 1SM BR BKN004
     FM260300 13004KT 1/2SM FG VV002
     FM261300 VRB05KT P6SM SCT025=



    US Dept of Commerce
    National Oceanic and Atmospheric Administration
    National Weather Service
    1325 East West Highway
    Silver Spring, MD 20910
    Page Author: NWS Internet Services Team
Disclaimer
Information Quality
Credits
Glossary
Privacy Policy
Freedom of Information Act (FOIA)
About Us
Career Opportunities